sensor_id;sensor_type;location;lat;lon;timestamp;P1;durP1;ratioP1;P2;durP2;ratioP2
41623;SDS011;27319;50.306;18.926;2023-05-10T00:02:09;10.65;;;5.47;;
41623;SDS011;27319;50.306;18.926;2023-05-10T00:06:05;11.18;;;5.63;;
41623;SDS011;27319;50.306;18.926;2023-05-10T00:09:07;10.35;;;6.10;;
41623;SDS011;27319;50.306;18.926;2023-05-10T00:13:07;11.40;;;6.53;;
41623;SDS011;27319;50.306;18.926;2023-05-10T00:17:08;11.73;;;5.65;;
41623;SDS011;27319;50.306;18.926;2023-05-10T00:20:09;19.67;;;7.15;;
41623;SDS011;27319;50.306;18.926;2023-05-10T00:23:11;12.07;;;7.15;;
41623;SDS011;27319;50.306;18.926;2023-05-10T00:26:12;11.07;;;5.95;;
41623;SDS011;27319;50.306;18.926;2023-05-10T00:29:13;8.68;;;5.78;;
41623;SDS011;27319;50.306;18.926;2023-05-10T00:32:14;12.00;;;6.88;;
41623;SDS011;27319;50.306;18.926;2023-05-10T00:35:16;12.40;;;6.45;;
41623;SDS011;27319;50.306;18.926;2023-05-10T00:38:17;10.57;;;6.63;;
41623;SDS011;27319;50.306;18.926;2023-05-10T00:42:18;10.07;;;6.25;;
41623;SDS011;27319;50.306;18.926;2023-05-10T00:45:18;10.73;;;5.88;;
41623;SDS011;27319;50.306;18.926;2023-05-10T00:49:19;13.90;;;6.60;;
41623;SDS011;27319;50.306;18.926;2023-05-10T00:52:21;11.55;;;5.90;;
41623;SDS011;27319;50.306;18.926;2023-05-10T00:55:24;12.60;;;6.35;;
41623;SDS011;27319;50.306;18.926;2023-05-10T00:58:25;9.70;;;5.88;;
41623;SDS011;27319;50.306;18.926;2023-05-10T01:01:28;13.25;;;6.30;;
41623;SDS011;27319;50.306;18.926;2023-05-10T01:04:32;9.82;;;5.38;;
41623;SDS011;27319;50.306;18.926;2023-05-10T01:07:34;10.77;;;6.28;;
41623;SDS011;27319;50.306;18.926;2023-05-10T01:10:34;9.35;;;5.60;;
41623;SDS011;27319;50.306;18.926;2023-05-10T01:13:36;9.70;;;6.07;;
41623;SDS011;27319;50.306;18.926;2023-05-10T01:17:37;12.80;;;5.90;;
41623;SDS011;27319;50.306;18.926;2023-05-10T01:21:38;12.75;;;5.88;;
41623;SDS011;27319;50.306;18.926;2023-05-10T01:31:58;10.45;;;6.47;;
41623;SDS011;27319;50.306;18.926;2023-05-10T01:34:59;9.10;;;5.40;;
41623;SDS011;27319;50.306;18.926;2023-05-10T01:48:16;10.98;;;6.20;;
41623;SDS011;27319;50.306;18.926;2023-05-10T01:51:59;8.75;;;5.28;;
41623;SDS011;27319;50.306;18.926;2023-05-10T01:55:02;12.70;;;5.90;;
41623;SDS011;27319;50.306;18.926;2023-05-10T01:58:59;11.02;;;6.10;;
41623;SDS011;27319;50.306;18.926;2023-05-10T02:02:42;10.18;;;6.22;;
41623;SDS011;27319;50.306;18.926;2023-05-10T02:06:26;11.25;;;6.03;;
41623;SDS011;27319;50.306;18.926;2023-05-10T02:10:05;11.32;;;6.72;;
41623;SDS011;27319;50.306;18.926;2023-05-10T02:14:07;12.95;;;7.15;;
41623;SDS011;27319;50.306;18.926;2023-05-10T02:17:10;15.10;;;7.82;;
41623;SDS011;27319;50.306;18.926;2023-05-10T02:21:11;9.50;;;6.40;;
41623;SDS011;27319;50.306;18.926;2023-05-10T02:25:12;9.40;;;6.07;;
41623;SDS011;27319;50.306;18.926;2023-05-10T02:29:12;10.45;;;6.05;;
41623;SDS011;27319;50.306;18.926;2023-05-10T02:33:09;11.98;;;6.07;;
41623;SDS011;27319;50.306;18.926;2023-05-10T02:37:10;16.58;;;6.97;;
41623;SDS011;27319;50.306;18.926;2023-05-10T02:40:14;10.25;;;6.18;;
41623;SDS011;27319;50.306;18.926;2023-05-10T02:43:18;9.70;;;6.05;;
41623;SDS011;27319;50.306;18.926;2023-05-10T02:46:25;13.65;;;6.72;;
41623;SDS011;27319;50.306;18.926;2023-05-10T02:49:26;10.60;;;6.50;;
41623;SDS011;27319;50.306;18.926;2023-05-10T02:53:31;9.77;;;5.72;;
41623;SDS011;27319;50.306;18.926;2023-05-10T02:57:28;10.48;;;6.63;;
41623;SDS011;27319;50.306;18.926;2023-05-10T03:00:36;10.20;;;5.83;;
41623;SDS011;27319;50.306;18.926;2023-05-10T03:03:37;8.15;;;6.00;;
41623;SDS011;27319;50.306;18.926;2023-05-10T03:06:48;13.27;;;5.95;;
41623;SDS011;27319;50.306;18.926;2023-05-10T03:09:49;8.15;;;5.70;;
41623;SDS011;27319;50.306;18.926;2023-05-10T03:16:15;12.00;;;5.68;;
41623;SDS011;27319;50.306;18.926;2023-05-10T03:19:24;8.75;;;6.07;;
41623;SDS011;27319;50.306;18.926;2023-05-10T03:23:27;11.68;;;7.05;;
41623;SDS011;27319;50.306;18.926;2023-05-10T03:27:40;12.50;;;6.68;;
41623;SDS011;27319;50.306;18.926;2023-05-10T03:30:43;10.38;;;7.22;;
41623;SDS011;27319;50.306;18.926;2023-05-10T03:33:48;12.00;;;7.28;;
41623;SDS011;27319;50.306;18.926;2023-05-10T03:36:50;13.65;;;7.18;;
41623;SDS011;27319;50.306;18.926;2023-05-10T03:40:51;13.95;;;7.22;;
41623;SDS011;27319;50.306;18.926;2023-05-10T03:44:52;16.63;;;7.28;;
41623;SDS011;27319;50.306;18.926;2023-05-10T03:48:53;13.35;;;6.80;;
41623;SDS011;27319;50.306;18.926;2023-05-10T03:52:36;11.75;;;6.55;;
41623;SDS011;27319;50.306;18.926;2023-05-10T03:55:39;11.48;;;6.70;;
41623;SDS011;27319;50.306;18.926;2023-05-10T03:58:40;12.13;;;6.15;;
41623;SDS011;27319;50.306;18.926;2023-05-10T04:01:41;10.25;;;6.82;;
41623;SDS011;27319;50.306;18.926;2023-05-10T04:04:42;8.48;;;5.45;;
41623;SDS011;27319;50.306;18.926;2023-05-10T04:07:43;10.50;;;5.97;;
41623;SDS011;27319;50.306;18.926;2023-05-10T04:10:44;9.52;;;6.55;;
41623;SDS011;27319;50.306;18.926;2023-05-10T04:13:45;13.88;;;6.20;;
41623;SDS011;27319;50.306;18.926;2023-05-10T04:17:46;9.68;;;5.30;;
41623;SDS011;27319;50.306;18.926;2023-05-10T04:20:47;10.73;;;6.10;;
41623;SDS011;27319;50.306;18.926;2023-05-10T04:23:48;10.82;;;6.18;;
41623;SDS011;27319;50.306;18.926;2023-05-10T04:26:49;12.48;;;6.32;;
41623;SDS011;27319;50.306;18.926;2023-05-10T04:29:50;13.20;;;5.93;;
41623;SDS011;27319;50.306;18.926;2023-05-10T04:32:51;11.07;;;5.95;;
41623;SDS011;27319;50.306;18.926;2023-05-10T04:35:52;14.32;;;6.20;;
41623;SDS011;27319;50.306;18.926;2023-05-10T04:39:53;11.85;;;6.13;;
41623;SDS011;27319;50.306;18.926;2023-05-10T04:42:54;10.07;;;5.95;;
41623;SDS011;27319;50.306;18.926;2023-05-10T04:46:15;12.95;;;6.30;;
41623;SDS011;27319;50.306;18.926;2023-05-10T04:49:15;9.82;;;6.55;;
41623;SDS011;27319;50.306;18.926;2023-05-10T04:52:17;9.98;;;5.28;;
41623;SDS011;27319;50.306;18.926;2023-05-10T04:55:26;8.55;;;5.30;;
41623;SDS011;27319;50.306;18.926;2023-05-10T04:59:27;13.10;;;5.75;;
41623;SDS011;27319;50.306;18.926;2023-05-10T05:03:27;10.32;;;6.05;;
41623;SDS011;27319;50.306;18.926;2023-05-10T05:06:28;9.05;;;5.10;;
41623;SDS011;27319;50.306;18.926;2023-05-10T05:09:29;11.50;;;5.65;;
41623;SDS011;27319;50.306;18.926;2023-05-10T05:12:46;8.63;;;5.38;;
41623;SDS011;27319;50.306;18.926;2023-05-10T05:15:47;14.88;;;5.72;;
41623;SDS011;27319;50.306;18.926;2023-05-10T05:19:48;8.90;;;5.18;;
41623;SDS011;27319;50.306;18.926;2023-05-10T05:23:49;11.23;;;6.38;;
41623;SDS011;27319;50.306;18.926;2023-05-10T05:27:50;13.32;;;7.05;;
41623;SDS011;27319;50.306;18.926;2023-05-10T05:31:51;16.80;;;5.90;;
41623;SDS011;27319;50.306;18.926;2023-05-10T05:35:52;10.30;;;5.10;;
41623;SDS011;27319;50.306;18.926;2023-05-10T05:39:52;11.55;;;6.13;;
41623;SDS011;27319;50.306;18.926;2023-05-10T05:43:53;10.85;;;5.93;;
41623;SDS011;27319;50.306;18.926;2023-05-10T05:47:54;7.82;;;5.22;;
41623;SDS011;27319;50.306;18.926;2023-05-10T05:51:58;12.02;;;5.45;;
41623;SDS011;27319;50.306;18.926;2023-05-10T05:55:56;15.52;;;5.18;;
41623;SDS011;27319;50.306;18.926;2023-05-10T05:59:40;11.82;;;5.50;;
41623;SDS011;27319;50.306;18.926;2023-05-10T06:03:41;13.98;;;5.68;;
41623;SDS011;27319;50.306;18.926;2023-05-10T06:06:42;11.02;;;5.60;;
41623;SDS011;27319;50.306;18.926;2023-05-10T06:09:59;10.70;;;5.78;;
41623;SDS011;27319;50.306;18.926;2023-05-10T06:14:00;14.38;;;5.43;;
41623;SDS011;27319;50.306;18.926;2023-05-10T06:18:00;13.18;;;5.78;;
41623;SDS011;27319;50.306;18.926;2023-05-10T06:22:01;13.38;;;4.35;;
41623;SDS011;27319;50.306;18.926;2023-05-10T06:26:01;7.82;;;4.45;;
41623;SDS011;27319;50.306;18.926;2023-05-10T06:30:03;6.45;;;4.68;;
41623;SDS011;27319;50.306;18.926;2023-05-10T06:34:03;6.50;;;3.53;;
41623;SDS011;27319;50.306;18.926;2023-05-10T06:38:04;6.82;;;4.43;;
41623;SDS011;27319;50.306;18.926;2023-05-10T06:42:05;7.50;;;3.85;;
41623;SDS011;27319;50.306;18.926;2023-05-10T06:46:06;10.45;;;3.70;;
41623;SDS011;27319;50.306;18.926;2023-05-10T06:50:07;6.53;;;3.80;;
41623;SDS011;27319;50.306;18.926;2023-05-10T06:54:08;6.53;;;3.55;;
41623;SDS011;27319;50.306;18.926;2023-05-10T06:58:08;6.15;;;3.83;;
41623;SDS011;27319;50.306;18.926;2023-05-10T07:02:09;7.75;;;3.10;;
41623;SDS011;27319;50.306;18.926;2023-05-10T07:06:10;7.72;;;3.17;;
41623;SDS011;27319;50.306;18.926;2023-05-10T07:09:11;5.32;;;3.50;;
41623;SDS011;27319;50.306;18.926;2023-05-10T07:12:13;8.35;;;3.50;;
41623;SDS011;27319;50.306;18.926;2023-05-10T07:15:14;4.65;;;2.88;;
41623;SDS011;27319;50.306;18.926;2023-05-10T07:18:16;3.97;;;2.97;;
41623;SDS011;27319;50.306;18.926;2023-05-10T07:21:17;7.55;;;3.60;;
41623;SDS011;27319;50.306;18.926;2023-05-10T07:24:18;10.30;;;3.30;;
41623;SDS011;27319;50.306;18.926;2023-05-10T07:27:19;9.00;;;2.92;;
41623;SDS011;27319;50.306;18.926;2023-05-10T07:30:20;7.53;;;3.00;;
41623;SDS011;27319;50.306;18.926;2023-05-10T07:34:21;4.32;;;3.25;;
41623;SDS011;27319;50.306;18.926;2023-05-10T07:38:22;6.05;;;3.15;;
41623;SDS011;27319;50.306;18.926;2023-05-10T07:42:23;8.73;;;2.85;;
41623;SDS011;27319;50.306;18.926;2023-05-10T07:46:23;4.90;;;2.60;;
41623;SDS011;27319;50.306;18.926;2023-05-10T07:50:24;9.43;;;2.42;;
41623;SDS011;27319;50.306;18.926;2023-05-10T07:54:25;8.27;;;2.15;;
41623;SDS011;27319;50.306;18.926;2023-05-10T07:58:26;4.82;;;2.42;;
41623;SDS011;27319;50.306;18.926;2023-05-10T08:02:27;7.78;;;2.90;;
41623;SDS011;27319;50.306;18.926;2023-05-10T08:06:23;5.25;;;2.50;;
41623;SDS011;27319;50.306;18.926;2023-05-10T08:09:26;4.30;;;2.17;;
41623;SDS011;27319;50.306;18.926;2023-05-10T08:12:27;2.97;;;2.33;;
41623;SDS011;27319;50.306;18.926;2023-05-10T08:15:28;5.00;;;1.90;;
41623;SDS011;27319;50.306;18.926;2023-05-10T08:18:29;4.53;;;2.22;;
41623;SDS011;27319;50.306;18.926;2023-05-10T08:21:30;5.97;;;1.95;;
41623;SDS011;27319;50.306;18.926;2023-05-10T08:24:31;6.40;;;2.28;;
41623;SDS011;27319;50.306;18.926;2023-05-10T08:27:32;7.93;;;2.15;;
41623;SDS011;27319;50.306;18.926;2023-05-10T08:30:34;7.32;;;2.45;;
41623;SDS011;27319;50.306;18.926;2023-05-10T08:33:34;5.47;;;2.10;;
41623;SDS011;27319;50.306;18.926;2023-05-10T08:36:36;4.13;;;1.85;;
41623;SDS011;27319;50.306;18.926;2023-05-10T08:40:37;8.15;;;2.60;;
41623;SDS011;27319;50.306;18.926;2023-05-10T08:44:37;6.32;;;2.22;;
41623;SDS011;27319;50.306;18.926;2023-05-10T08:48:38;4.38;;;2.65;;
41623;SDS011;27319;50.306;18.926;2023-05-10T08:52:39;4.20;;;2.22;;
41623;SDS011;27319;50.306;18.926;2023-05-10T08:56:40;10.02;;;2.53;;
41623;SDS011;27319;50.306;18.926;2023-05-10T09:00:40;4.28;;;2.20;;
41623;SDS011;27319;50.306;18.926;2023-05-10T09:04:41;5.40;;;2.92;;
41623;SDS011;27319;50.306;18.926;2023-05-10T09:07:42;4.22;;;2.63;;
41623;SDS011;27319;50.306;18.926;2023-05-10T09:10:43;3.33;;;2.05;;
41623;SDS011;27319;50.306;18.926;2023-05-10T09:13:48;4.38;;;2.35;;
41623;SDS011;27319;50.306;18.926;2023-05-10T09:16:51;4.55;;;2.88;;
41623;SDS011;27319;50.306;18.926;2023-05-10T09:20:52;8.82;;;2.88;;
41623;SDS011;27319;50.306;18.926;2023-05-10T09:25:09;5.53;;;2.22;;
41623;SDS011;27319;50.306;18.926;2023-05-10T09:29:09;5.32;;;2.83;;
41623;SDS011;27319;50.306;18.926;2023-05-10T09:33:19;3.72;;;2.20;;
41623;SDS011;27319;50.306;18.926;2023-05-10T09:37:29;3.33;;;2.45;;
41623;SDS011;27319;50.306;18.926;2023-05-10T09:41:29;3.75;;;2.53;;
41623;SDS011;27319;50.306;18.926;2023-05-10T09:45:32;6.50;;;2.28;;
41623;SDS011;27319;50.306;18.926;2023-05-10T09:49:31;4.10;;;2.20;;
41623;SDS011;27319;50.306;18.926;2023-05-10T09:53:32;8.70;;;3.40;;
41623;SDS011;27319;50.306;18.926;2023-05-10T10:01:25;6.95;;;2.42;;
41623;SDS011;27319;50.306;18.926;2023-05-10T10:05:32;2.90;;;1.77;;
41623;SDS011;27319;50.306;18.926;2023-05-10T10:09:30;4.57;;;2.40;;
41623;SDS011;27319;50.306;18.926;2023-05-10T10:12:31;6.72;;;2.50;;
41623;SDS011;27319;50.306;18.926;2023-05-10T10:15:33;3.75;;;2.40;;
41623;SDS011;27319;50.306;18.926;2023-05-10T10:18:37;7.53;;;1.98;;
41623;SDS011;27319;50.306;18.926;2023-05-10T10:21:39;5.65;;;2.60;;
41623;SDS011;27319;50.306;18.926;2023-05-10T10:24:40;5.38;;;2.30;;
41623;SDS011;27319;50.306;18.926;2023-05-10T10:27:48;4.07;;;2.13;;
41623;SDS011;27319;50.306;18.926;2023-05-10T10:30:49;7.18;;;2.13;;
41623;SDS011;27319;50.306;18.926;2023-05-10T10:34:01;5.88;;;2.05;;
41623;SDS011;27319;50.306;18.926;2023-05-10T10:37:05;5.20;;;2.20;;
41623;SDS011;27319;50.306;18.926;2023-05-10T10:40:22;3.72;;;2.20;;
41623;SDS011;27319;50.306;18.926;2023-05-10T10:43:27;3.35;;;1.88;;
41623;SDS011;27319;50.306;18.926;2023-05-10T10:46:29;6.85;;;2.00;;
41623;SDS011;27319;50.306;18.926;2023-05-10T10:49:33;3.25;;;1.95;;
41623;SDS011;27319;50.306;18.926;2023-05-10T10:52:39;5.28;;;2.38;;
41623;SDS011;27319;50.306;18.926;2023-05-10T10:55:47;6.57;;;2.42;;
41623;SDS011;27319;50.306;18.926;2023-05-10T10:58:49;5.43;;;2.00;;
41623;SDS011;27319;50.306;18.926;2023-05-10T11:01:53;5.90;;;1.90;;
41623;SDS011;27319;50.306;18.926;2023-05-10T11:04:54;6.50;;;2.80;;
41623;SDS011;27319;50.306;18.926;2023-05-10T11:07:56;9.23;;;2.38;;
41623;SDS011;27319;50.306;18.926;2023-05-10T11:14:05;3.83;;;2.45;;
41623;SDS011;27319;50.306;18.926;2023-05-10T11:17:50;4.85;;;2.33;;
41623;SDS011;27319;50.306;18.926;2023-05-10T11:20:38;4.82;;;2.20;;
41623;SDS011;27319;50.306;18.926;2023-05-10T11:26:43;10.75;;;2.67;;
41623;SDS011;27319;50.306;18.926;2023-05-10T11:30:44;5.18;;;2.45;;
41623;SDS011;27319;50.306;18.926;2023-05-10T11:34:46;8.07;;;5.57;;
41623;SDS011;27319;50.306;18.926;2023-05-10T11:38:48;7.50;;;3.95;;
41623;SDS011;27319;50.306;18.926;2023-05-10T11:42:49;5.18;;;2.00;;
41623;SDS011;27319;50.306;18.926;2023-05-10T11:46:50;5.55;;;2.60;;
41623;SDS011;27319;50.306;18.926;2023-05-10T11:50:50;3.65;;;2.38;;
41623;SDS011;27319;50.306;18.926;2023-05-10T11:54:51;4.03;;;2.53;;
41623;SDS011;27319;50.306;18.926;2023-05-10T11:58:56;5.25;;;2.75;;
41623;SDS011;27319;50.306;18.926;2023-05-10T12:02:56;3.83;;;2.30;;
41623;SDS011;27319;50.306;18.926;2023-05-10T12:06:20;10.25;;;2.55;;
41623;SDS011;27319;50.306;18.926;2023-05-10T12:09:22;6.80;;;2.35;;
41623;SDS011;27319;50.306;18.926;2023-05-10T12:12:23;5.20;;;2.38;;
41623;SDS011;27319;50.306;18.926;2023-05-10T12:15:24;5.25;;;2.67;;
41623;SDS011;27319;50.306;18.926;2023-05-10T12:18:25;3.28;;;2.10;;
41623;SDS011;27319;50.306;18.926;2023-05-10T12:21:27;4.43;;;2.10;;
41623;SDS011;27319;50.306;18.926;2023-05-10T12:24:29;3.45;;;2.20;;
41623;SDS011;27319;50.306;18.926;2023-05-10T12:27:33;5.85;;;2.30;;
41623;SDS011;27319;50.306;18.926;2023-05-10T12:30:34;6.63;;;2.47;;
41623;SDS011;27319;50.306;18.926;2023-05-10T12:33:40;5.93;;;2.45;;
41623;SDS011;27319;50.306;18.926;2023-05-10T12:36:43;7.13;;;2.55;;
41623;SDS011;27319;50.306;18.926;2023-05-10T12:39:44;3.95;;;2.58;;
41623;SDS011;27319;50.306;18.926;2023-05-10T12:42:46;9.55;;;2.40;;
41623;SDS011;27319;50.306;18.926;2023-05-10T12:45:47;6.53;;;2.47;;
41623;SDS011;27319;50.306;18.926;2023-05-10T12:48:49;6.32;;;2.53;;
41623;SDS011;27319;50.306;18.926;2023-05-10T12:51:55;4.13;;;2.40;;
41623;SDS011;27319;50.306;18.926;2023-05-10T12:54:56;3.03;;;2.10;;
41623;SDS011;27319;50.306;18.926;2023-05-10T12:57:57;5.93;;;2.40;;
41623;SDS011;27319;50.306;18.926;2023-05-10T13:00:58;10.60;;;2.38;;
41623;SDS011;27319;50.306;18.926;2023-05-10T13:04:00;7.25;;;2.53;;
41623;SDS011;27319;50.306;18.926;2023-05-10T13:07:01;3.58;;;2.20;;
41623;SDS011;27319;50.306;18.926;2023-05-10T13:10:03;5.90;;;2.40;;
41623;SDS011;27319;50.306;18.926;2023-05-10T13:13:03;5.03;;;2.58;;
41623;SDS011;27319;50.306;18.926;2023-05-10T13:16:06;5.97;;;2.30;;
41623;SDS011;27319;50.306;18.926;2023-05-10T13:19:06;6.38;;;2.30;;
41623;SDS011;27319;50.306;18.926;2023-05-10T13:22:08;7.45;;;2.70;;
41623;SDS011;27319;50.306;18.926;2023-05-10T13:25:09;6.47;;;2.60;;
41623;SDS011;27319;50.306;18.926;2023-05-10T13:28:11;5.47;;;2.10;;
41623;SDS011;27319;50.306;18.926;2023-05-10T13:31:12;5.85;;;2.30;;
41623;SDS011;27319;50.306;18.926;2023-05-10T13:34:13;5.75;;;2.00;;
41623;SDS011;27319;50.306;18.926;2023-05-10T13:37:14;5.18;;;1.90;;
41623;SDS011;27319;50.306;18.926;2023-05-10T13:40:15;5.55;;;2.05;;
41623;SDS011;27319;50.306;18.926;2023-05-10T13:43:16;4.97;;;2.28;;
41623;SDS011;27319;50.306;18.926;2023-05-10T13:46:17;5.70;;;2.38;;
41623;SDS011;27319;50.306;18.926;2023-05-10T13:49:18;2.70;;;1.90;;
41623;SDS011;27319;50.306;18.926;2023-05-10T13:52:19;6.22;;;2.65;;
41623;SDS011;27319;50.306;18.926;2023-05-10T13:55:20;8.05;;;2.40;;
41623;SDS011;27319;50.306;18.926;2023-05-10T13:58:22;3.78;;;2.20;;
41623;SDS011;27319;50.306;18.926;2023-05-10T14:01:23;7.15;;;2.70;;
41623;SDS011;27319;50.306;18.926;2023-05-10T14:04:25;7.53;;;2.33;;
41623;SDS011;27319;50.306;18.926;2023-05-10T14:07:25;4.10;;;2.30;;
41623;SDS011;27319;50.306;18.926;2023-05-10T14:10:26;7.90;;;2.30;;
41623;SDS011;27319;50.306;18.926;2023-05-10T14:13:27;9.13;;;2.97;;
41623;SDS011;27319;50.306;18.926;2023-05-10T14:16:29;6.63;;;2.33;;
41623;SDS011;27319;50.306;18.926;2023-05-10T14:19:30;5.57;;;2.40;;
41623;SDS011;27319;50.306;18.926;2023-05-10T14:22:33;4.90;;;2.17;;
41623;SDS011;27319;50.306;18.926;2023-05-10T14:25:34;6.13;;;2.10;;
41623;SDS011;27319;50.306;18.926;2023-05-10T14:28:35;4.85;;;1.90;;
41623;SDS011;27319;50.306;18.926;2023-05-10T14:31:36;3.65;;;1.95;;
41623;SDS011;27319;50.306;18.926;2023-05-10T14:34:37;5.25;;;2.20;;
41623;SDS011;27319;50.306;18.926;2023-05-10T14:37:38;7.75;;;2.50;;
41623;SDS011;27319;50.306;18.926;2023-05-10T14:40:39;3.63;;;2.65;;
41623;SDS011;27319;50.306;18.926;2023-05-10T14:43:40;4.75;;;2.35;;
41623;SDS011;27319;50.306;18.926;2023-05-10T14:46:42;3.08;;;2.58;;
41623;SDS011;27319;50.306;18.926;2023-05-10T14:49:42;3.00;;;2.10;;
41623;SDS011;27319;50.306;18.926;2023-05-10T14:52:44;6.03;;;2.30;;
41623;SDS011;27319;50.306;18.926;2023-05-10T14:55:44;7.55;;;2.45;;
41623;SDS011;27319;50.306;18.926;2023-05-10T14:58:45;6.35;;;2.50;;
41623;SDS011;27319;50.306;18.926;2023-05-10T15:01:46;9.13;;;2.65;;
41623;SDS011;27319;50.306;18.926;2023-05-10T15:04:47;6.90;;;2.47;;
41623;SDS011;27319;50.306;18.926;2023-05-10T15:07:48;6.15;;;2.58;;
41623;SDS011;27319;50.306;18.926;2023-05-10T15:10:49;5.72;;;3.17;;
41623;SDS011;27319;50.306;18.926;2023-05-10T15:13:51;15.77;;;3.60;;
41623;SDS011;27319;50.306;18.926;2023-05-10T15:16:52;5.05;;;2.63;;
41623;SDS011;27319;50.306;18.926;2023-05-10T15:19:53;4.38;;;2.53;;
41623;SDS011;27319;50.306;18.926;2023-05-10T15:22:54;32.30;;;5.93;;
41623;SDS011;27319;50.306;18.926;2023-05-10T15:25:55;7.63;;;3.50;;
41623;SDS011;27319;50.306;18.926;2023-05-10T15:28:56;10.75;;;3.13;;
41623;SDS011;27319;50.306;18.926;2023-05-10T15:31:57;6.47;;;3.15;;
41623;SDS011;27319;50.306;18.926;2023-05-10T15:34:58;6.30;;;2.80;;
41623;SDS011;27319;50.306;18.926;2023-05-10T15:37:59;17.27;;;3.10;;
41623;SDS011;27319;50.306;18.926;2023-05-10T15:41:00;4.40;;;2.90;;
41623;SDS011;27319;50.306;18.926;2023-05-10T15:44:01;4.35;;;2.33;;
41623;SDS011;27319;50.306;18.926;2023-05-10T15:47:02;5.97;;;2.80;;
41623;SDS011;27319;50.306;18.926;2023-05-10T15:51:03;5.10;;;2.60;;
41623;SDS011;27319;50.306;18.926;2023-05-10T15:55:04;8.00;;;2.63;;
41623;SDS011;27319;50.306;18.926;2023-05-10T15:59:05;5.18;;;2.30;;
41623;SDS011;27319;50.306;18.926;2023-05-10T16:03:06;4.75;;;2.70;;
41623;SDS011;27319;50.306;18.926;2023-05-10T16:06:22;4.63;;;2.95;;
41623;SDS011;27319;50.306;18.926;2023-05-10T16:09:23;3.60;;;2.13;;
41623;SDS011;27319;50.306;18.926;2023-05-10T16:12:31;11.80;;;3.05;;
41623;SDS011;27319;50.306;18.926;2023-05-10T16:16:30;4.20;;;3.05;;
41623;SDS011;27319;50.306;18.926;2023-05-10T16:20:18;8.98;;;3.67;;
41623;SDS011;27319;50.306;18.926;2023-05-10T16:24:19;6.88;;;3.40;;
41623;SDS011;27319;50.306;18.926;2023-05-10T16:28:20;10.32;;;3.63;;
41623;SDS011;27319;50.306;18.926;2023-05-10T16:32:21;4.80;;;3.20;;
41623;SDS011;27319;50.306;18.926;2023-05-10T16:36:22;5.38;;;3.00;;
41623;SDS011;27319;50.306;18.926;2023-05-10T16:40:23;9.48;;;3.65;;
41623;SDS011;27319;50.306;18.926;2023-05-10T16:43:23;8.57;;;2.95;;
41623;SDS011;27319;50.306;18.926;2023-05-10T16:47:24;10.88;;;3.70;;
41623;SDS011;27319;50.306;18.926;2023-05-10T16:50:45;10.88;;;3.40;;
41623;SDS011;27319;50.306;18.926;2023-05-10T16:53:47;5.40;;;3.22;;
41623;SDS011;27319;50.306;18.926;2023-05-10T16:57:48;5.78;;;2.55;;
41623;SDS011;27319;50.306;18.926;2023-05-10T17:01:49;5.35;;;2.50;;
41623;SDS011;27319;50.306;18.926;2023-05-10T17:04:52;6.35;;;2.58;;
41623;SDS011;27319;50.306;18.926;2023-05-10T17:08:53;6.70;;;2.70;;
41623;SDS011;27319;50.306;18.926;2023-05-10T17:12:50;6.55;;;2.80;;
41623;SDS011;27319;50.306;18.926;2023-05-10T17:15:50;4.35;;;2.60;;
41623;SDS011;27319;50.306;18.926;2023-05-10T17:18:52;5.15;;;2.95;;
41623;SDS011;27319;50.306;18.926;2023-05-10T17:21:52;4.97;;;2.42;;
41623;SDS011;27319;50.306;18.926;2023-05-10T17:24:53;5.07;;;2.40;;
41623;SDS011;27319;50.306;18.926;2023-05-10T17:28:31;7.95;;;3.17;;
41623;SDS011;27319;50.306;18.926;2023-05-10T17:31:32;6.57;;;3.33;;
41623;SDS011;27319;50.306;18.926;2023-05-10T17:34:33;8.27;;;3.70;;
41623;SDS011;27319;50.306;18.926;2023-05-10T17:38:34;11.30;;;3.80;;
41623;SDS011;27319;50.306;18.926;2023-05-10T17:42:34;10.55;;;3.80;;
41623;SDS011;27319;50.306;18.926;2023-05-10T17:45:35;8.30;;;3.92;;
41623;SDS011;27319;50.306;18.926;2023-05-10T17:49:36;5.32;;;3.92;;
41623;SDS011;27319;50.306;18.926;2023-05-10T17:53:40;11.80;;;3.63;;
41623;SDS011;27319;50.306;18.926;2023-05-10T17:56:41;6.47;;;3.80;;
41623;SDS011;27319;50.306;18.926;2023-05-10T18:00:41;4.85;;;3.50;;
41623;SDS011;27319;50.306;18.926;2023-05-10T18:03:57;7.03;;;3.15;;
41623;SDS011;27319;50.306;18.926;2023-05-10T18:07:58;6.55;;;3.25;;
41623;SDS011;27319;50.306;18.926;2023-05-10T18:10:59;7.65;;;3.50;;
41623;SDS011;27319;50.306;18.926;2023-05-10T18:14:59;8.55;;;3.25;;
41623;SDS011;27319;50.306;18.926;2023-05-10T18:19:00;4.40;;;3.15;;
41623;SDS011;27319;50.306;18.926;2023-05-10T18:23:01;4.68;;;3.30;;
41623;SDS011;27319;50.306;18.926;2023-05-10T18:26:02;5.20;;;3.70;;
41623;SDS011;27319;50.306;18.926;2023-05-10T18:29:03;10.02;;;4.50;;
41623;SDS011;27319;50.306;18.926;2023-05-10T18:32:04;8.57;;;4.30;;
41623;SDS011;27319;50.306;18.926;2023-05-10T18:36:05;8.05;;;3.92;;
41623;SDS011;27319;50.306;18.926;2023-05-10T18:39:06;10.18;;;3.83;;
41623;SDS011;27319;50.306;18.926;2023-05-10T18:42:34;8.40;;;4.57;;
41623;SDS011;27319;50.306;18.926;2023-05-10T18:46:35;10.40;;;3.95;;
41623;SDS011;27319;50.306;18.926;2023-05-10T18:50:36;9.68;;;4.55;;
41623;SDS011;27319;50.306;18.926;2023-05-10T19:06:19;9.43;;;5.15;;
41623;SDS011;27319;50.306;18.926;2023-05-10T19:09:40;13.48;;;5.00;;
41623;SDS011;27319;50.306;18.926;2023-05-10T19:13:41;10.75;;;4.80;;
41623;SDS011;27319;50.306;18.926;2023-05-10T19:17:22;6.55;;;4.40;;
41623;SDS011;27319;50.306;18.926;2023-05-10T19:20:23;9.10;;;4.25;;
41623;SDS011;27319;50.306;18.926;2023-05-10T19:23:24;8.18;;;4.70;;
41623;SDS011;27319;50.306;18.926;2023-05-10T19:27:25;7.97;;;4.65;;
41623;SDS011;27319;50.306;18.926;2023-05-10T19:31:28;9.52;;;4.30;;
41623;SDS011;27319;50.306;18.926;2023-05-10T19:35:29;15.13;;;4.00;;
41623;SDS011;27319;50.306;18.926;2023-05-10T19:39:30;7.15;;;4.43;;
41623;SDS011;27319;50.306;18.926;2023-05-10T19:43:31;9.13;;;5.07;;
41623;SDS011;27319;50.306;18.926;2023-05-10T19:47:31;13.00;;;4.47;;
41623;SDS011;27319;50.306;18.926;2023-05-10T19:51:32;15.60;;;5.07;;
41623;SDS011;27319;50.306;18.926;2023-05-10T19:55:33;12.05;;;4.97;;
41623;SDS011;27319;50.306;18.926;2023-05-10T19:59:29;9.80;;;5.28;;
41623;SDS011;27319;50.306;18.926;2023-05-10T20:02:30;9.63;;;5.45;;
41623;SDS011;27319;50.306;18.926;2023-05-10T20:05:38;14.07;;;5.37;;
41623;SDS011;27319;50.306;18.926;2023-05-10T20:09:40;13.88;;;5.80;;
41623;SDS011;27319;50.306;18.926;2023-05-10T20:13:40;9.70;;;5.55;;
41623;SDS011;27319;50.306;18.926;2023-05-10T20:17:23;10.32;;;5.68;;
41623;SDS011;27319;50.306;18.926;2023-05-10T20:21:24;12.45;;;5.28;;
41623;SDS011;27319;50.306;18.926;2023-05-10T20:25:13;9.25;;;4.50;;
41623;SDS011;27319;50.306;18.926;2023-05-10T20:29:13;14.40;;;5.07;;
41623;SDS011;27319;50.306;18.926;2023-05-10T20:33:14;8.43;;;4.38;;
41623;SDS011;27319;50.306;18.926;2023-05-10T20:47:52;8.30;;;4.57;;
41623;SDS011;27319;50.306;18.926;2023-05-10T20:50:53;11.00;;;4.60;;
41623;SDS011;27319;50.306;18.926;2023-05-10T20:53:54;6.70;;;4.40;;
41623;SDS011;27319;50.306;18.926;2023-05-10T20:56:57;9.48;;;4.68;;
41623;SDS011;27319;50.306;18.926;2023-05-10T20:59:57;14.50;;;5.10;;
41623;SDS011;27319;50.306;18.926;2023-05-10T21:02:58;8.05;;;4.57;;
41623;SDS011;27319;50.306;18.926;2023-05-10T21:06:59;10.30;;;4.88;;
41623;SDS011;27319;50.306;18.926;2023-05-10T21:11:03;11.10;;;4.63;;